createdAt,value
2018-12-10T00:02:04.857Z,3.86
2018-12-10T00:04:43.524Z,3.95
2018-12-10T00:07:21.113Z,3.80
2018-12-10T00:09:50.323Z,3.74
2018-12-10T00:12:18.624Z,3.63
2018-12-10T00:14:46.916Z,3.66
2018-12-10T00:17:15.209Z,3.51
2018-12-10T00:20:05.045Z,3.64
2018-12-10T00:22:42.032Z,3.42
2018-12-10T00:25:10.369Z,3.42
2018-12-10T00:27:48.095Z,3.49
2018-12-10T00:30:29.291Z,3.47
2018-12-10T00:32:57.759Z,3.30
2018-12-10T00:35:26.208Z,3.31
2018-12-10T00:38:10.796Z,3.13
2018-12-10T00:40:39.089Z,3.14
2018-12-10T00:43:07.487Z,3.07
2018-12-10T00:45:35.834Z,3.14
2018-12-10T00:48:04.180Z,3.29
2018-12-10T00:50:32.551Z,3.33
2018-12-10T00:53:00.882Z,3.49
2018-12-10T00:55:29.177Z,3.67
2018-12-10T00:58:12.372Z,3.57
2018-12-10T01:00:48.424Z,3.65
2018-12-10T01:03:19.907Z,3.90
2018-12-10T01:05:48.278Z,3.64
2018-12-10T01:08:37.315Z,3.53
2018-12-10T01:11:22.212Z,3.53
2018-12-10T01:13:50.489Z,3.62
2018-12-10T01:16:18.788Z,3.57
2018-12-10T01:18:54.236Z,3.37
2018-12-10T01:21:32.722Z,3.46
2018-12-10T01:24:00.938Z,3.19
2018-12-10T01:26:42.228Z,3.29
2018-12-10T01:29:27.205Z,3.25
2018-12-10T01:31:55.503Z,3.15
2018-12-10T01:34:23.848Z,3.10
2018-12-10T01:36:52.235Z,2.99
2018-12-10T01:39:20.474Z,3.07
2018-12-10T01:42:03.277Z,3.30
2018-12-10T01:44:31.555Z,3.29
2018-12-10T01:46:59.820Z,3.29
2018-12-10T01:49:35.960Z,3.28
2018-12-10T01:52:16.663Z,3.13
2018-12-10T01:54:45.124Z,2.94
2018-12-10T01:57:23.893Z,2.86
2018-12-10T02:00:03.884Z,2.75
2018-12-10T02:02:32.432Z,2.78
2018-12-10T02:05:14.983Z,2.83
2018-12-10T02:07:43.303Z,2.88
2018-12-10T02:10:11.652Z,3.13
2018-12-10T02:12:40.010Z,3.21
2018-12-10T02:15:18.885Z,3.13
2018-12-10T02:17:50.860Z,2.87
2018-12-10T02:20:27.297Z,2.91
2018-12-10T02:22:55.709Z,2.84
2018-12-10T02:25:23.904Z,3.07
2018-12-10T02:28:00.389Z,3.03
2018-12-10T02:30:36.797Z,3.29
2018-12-10T02:33:09.362Z,3.20
2018-12-10T02:35:37.708Z,3.09
2018-12-10T02:38:06.079Z,3.05
2018-12-10T02:40:34.640Z,3.05
2018-12-10T02:43:03.232Z,3.21
2018-12-10T02:45:43.916Z,3.39
2018-12-10T02:48:22.378Z,3.37
2018-12-10T02:50:58.111Z,3.75
2018-12-10T02:53:36.730Z,3.61
2018-12-10T02:56:19.853Z,2.04
2018-12-10T02:59:08.953Z,3.67
2018-12-10T03:04:33.153Z,3.64
2018-12-10T03:07:22.149Z,3.72
2018-12-10T03:09:50.450Z,3.84
2018-12-10T03:12:18.908Z,3.81
2018-12-10T03:15:00.701Z,3.86
2018-12-10T03:17:30.295Z,3.83
2018-12-10T03:19:58.516Z,3.67
2018-12-10T03:22:27.036Z,3.54
2018-12-10T03:24:55.356Z,3.55
2018-12-10T03:27:23.688Z,3.68
2018-12-10T03:29:52.157Z,3.76
2018-12-10T03:32:46.373Z,3.66
2018-12-10T03:35:23.480Z,3.81
2018-12-10T03:38:04.252Z,3.52
2018-12-10T03:40:32.602Z,3.33
2018-12-10T03:43:00.933Z,3.32
2018-12-10T03:45:50.276Z,3.26
2018-12-10T03:51:27.833Z,2.84
2018-12-10T03:54:10.623Z,3.12
2018-12-10T03:56:38.905Z,2.86
2018-12-10T03:59:07.225Z,2.75
2018-12-10T04:01:35.740Z,2.77
2018-12-10T04:04:25.295Z,2.95
2018-12-10T04:06:54.163Z,2.95
2018-12-10T04:09:22.483Z,3.27
2018-12-10T04:12:03.286Z,3.14
2018-12-10T04:14:52.838Z,3.11
2018-12-10T04:17:41.356Z,3.07
2018-12-10T04:20:22.156Z,2.98
2018-12-10T04:23:07.184Z,3.13
2018-12-10T04:25:42.587Z,3.29
2018-12-10T04:28:16.555Z,3.29
2018-12-10T04:30:58.287Z,3.35
2018-12-10T04:33:34.373Z,3.53
2018-12-10T04:36:17.629Z,3.70
2018-12-10T04:39:01.495Z,3.95
2018-12-10T04:41:51.126Z,3.99
2018-12-10T04:44:40.574Z,4.00
2018-12-10T04:47:16.708Z,3.73
2018-12-10T04:50:05.679Z,3.59
2018-12-10T04:52:50.662Z,3.62
2018-12-10T04:55:26.845Z,3.73
2018-12-10T04:57:55.447Z,3.95
2018-12-10T05:00:40.606Z,3.98
2018-12-10T05:03:25.567Z,3.83
2018-12-10T05:06:10.260Z,3.88
2018-12-10T05:08:55.120Z,3.90
2018-12-10T05:11:43.891Z,3.79
2018-12-10T05:14:15.719Z,3.77
2018-12-10T05:17:04.998Z,3.93
2018-12-10T05:19:50.466Z,4.06
2018-12-10T05:22:26.499Z,4.03
2018-12-10T05:25:20.662Z,3.83
2018-12-10T05:28:02.244Z,3.58
2018-12-10T05:30:45.851Z,3.49
2018-12-10T05:33:22.100Z,3.17
2018-12-10T05:36:11.459Z,3.09
2018-12-10T05:39:00.968Z,2.97
2018-12-10T05:41:40.442Z,2.81
2018-12-10T05:44:38.377Z,3.15
2018-12-10T05:47:23.926Z,2.97
2018-12-10T05:49:59.857Z,2.84
2018-12-10T05:52:44.702Z,2.72
2018-12-10T05:55:21.271Z,2.60
2018-12-10T05:58:04.425Z,2.71
2018-12-10T06:00:54.124Z,2.58
2018-12-10T06:03:36.866Z,2.69
2018-12-10T06:06:21.500Z,2.60
2018-12-10T06:09:10.536Z,2.60
2018-12-10T06:12:00.329Z,2.73
2018-12-10T06:14:50.035Z,3.07
2018-12-10T06:17:32.861Z,3.01
2018-12-10T06:20:22.205Z,2.87
2018-12-10T06:23:12.052Z,2.77
2018-12-10T06:25:48.656Z,2.78
2018-12-10T06:31:17.482Z,2.83
2018-12-10T06:34:00.611Z,2.78
2018-12-10T06:36:42.464Z,2.64
2018-12-10T06:39:31.433Z,2.62
2018-12-10T06:42:08.295Z,2.68
2018-12-10T06:44:37.409Z,2.58
2018-12-10T06:47:06.321Z,2.47
2018-12-10T06:49:35.046Z,2.39
2018-12-10T06:52:04.062Z,2.34
2018-12-10T06:54:32.466Z,2.53
2018-12-10T06:57:00.961Z,2.51
2018-12-10T06:59:29.317Z,2.60
2018-12-10T07:01:57.869Z,2.54
2018-12-10T07:04:26.293Z,2.45
2018-12-10T07:06:54.817Z,2.37
2018-12-10T07:09:23.361Z,2.29
2018-12-10T07:11:52.328Z,2.19
2018-12-10T07:14:21.418Z,2.16
2018-12-10T07:16:50.024Z,2.23
2018-12-10T07:19:20.218Z,2.26
2018-12-10T07:21:48.877Z,2.20
2018-12-10T07:24:17.305Z,2.08
2018-12-10T07:26:45.775Z,2.29
2018-12-10T07:29:14.421Z,2.37
2018-12-10T07:31:42.793Z,2.65
2018-12-10T07:34:11.336Z,2.47
2018-12-10T07:36:39.740Z,2.47
2018-12-10T07:39:08.695Z,2.56
2018-12-10T07:41:37.142Z,2.53
2018-12-10T07:44:05.514Z,2.56
2018-12-10T07:46:34.292Z,2.37
2018-12-10T07:49:02.845Z,2.37
2018-12-10T07:51:31.384Z,2.18
2018-12-10T07:54:00.287Z,2.10
2018-12-10T07:56:29.124Z,2.05
2018-12-10T07:58:57.847Z,2.28
2018-12-10T08:01:26.621Z,2.42
2018-12-10T08:03:55.374Z,2.44
2018-12-10T08:06:23.970Z,2.56
2018-12-10T08:08:52.686Z,2.32
2018-12-10T08:11:21.372Z,2.53
2018-12-10T08:13:49.905Z,2.42
2018-12-10T08:16:18.417Z,2.71
2018-12-10T08:18:47.203Z,2.80
2018-12-10T08:21:17.561Z,2.83
2018-12-10T08:23:46.078Z,2.83
2018-12-10T08:26:15.315Z,2.79
2018-12-10T08:34:28.058Z,3.26
2018-12-10T08:40:07.741Z,3.38
2018-12-10T08:42:36.371Z,3.30
2018-12-10T08:45:06.166Z,3.03
2018-12-10T08:47:34.848Z,2.92
2018-12-10T08:50:03.786Z,3.02
2018-12-10T08:52:32.843Z,3.07
2018-12-10T08:55:01.325Z,3.26
2018-12-10T08:57:30.153Z,3.67
2018-12-10T08:59:59.436Z,3.64
2018-12-10T09:02:31.313Z,3.72
2018-12-10T09:05:01.006Z,3.58
2018-12-10T09:07:29.410Z,3.35
2018-12-10T09:09:57.876Z,3.66
2018-12-10T09:12:26.669Z,3.55
2018-12-10T09:14:55.210Z,3.39
2018-12-10T09:17:23.801Z,3.48
2018-12-10T09:19:52.231Z,3.72
2018-12-10T09:22:20.983Z,3.55
2018-12-10T09:24:49.474Z,3.61
2018-12-10T09:27:27.380Z,3.76
2018-12-10T09:29:56.004Z,3.67
2018-12-10T09:32:24.555Z,3.84
2018-12-10T09:34:53.172Z,4.10
2018-12-10T09:37:21.894Z,4.06
2018-12-10T09:39:51.696Z,4.12
2018-12-10T09:42:20.895Z,4.16
2018-12-10T09:44:49.526Z,4.16
2018-12-10T09:47:18.075Z,4.13
2018-12-10T09:49:47.847Z,4.09
2018-12-10T09:52:16.740Z,4.17
2018-12-10T09:54:45.649Z,4.26
2018-12-10T09:57:14.457Z,4.22
2018-12-10T09:59:43.259Z,4.32
2018-12-10T10:02:12.836Z,4.27
2018-12-10T10:04:41.443Z,4.08
2018-12-10T10:07:10.021Z,4.22
2018-12-10T10:09:38.439Z,4.21
2018-12-10T10:12:06.964Z,4.38
2018-12-10T10:14:35.407Z,4.45
2018-12-10T10:17:04.393Z,4.26
2018-12-10T10:19:33.055Z,4.13
2018-12-10T10:22:01.571Z,3.89
2018-12-10T10:24:30.198Z,4.00
2018-12-10T10:26:58.862Z,4.18
2018-12-10T10:29:27.592Z,4.06
2018-12-10T10:31:56.128Z,4.29
2018-12-10T10:34:24.532Z,4.45
2018-12-10T10:36:53.125Z,4.38
2018-12-10T10:39:22.061Z,4.70
2018-12-10T10:41:57.426Z,4.62
2018-12-10T10:44:26.373Z,4.74
2018-12-10T10:46:55.075Z,4.46
2018-12-10T10:49:23.703Z,4.22
2018-12-10T10:51:52.319Z,4.12
2018-12-10T10:54:20.771Z,3.97
2018-12-10T10:56:49.304Z,4.17
2018-12-10T10:59:17.855Z,4.34
2018-12-10T11:01:51.661Z,4.61
2018-12-10T11:04:20.560Z,4.68
2018-12-10T11:06:49.503Z,4.70
2018-12-10T11:09:18.275Z,4.71
2018-12-10T11:11:47.059Z,4.32
2018-12-10T11:14:15.827Z,4.25
2018-12-10T11:16:44.502Z,4.39
2018-12-10T11:19:16.267Z,4.41
2018-12-10T11:21:44.829Z,4.58
2018-12-10T11:24:13.207Z,4.62
2018-12-10T11:26:41.644Z,4.71
2018-12-10T11:29:10.629Z,4.84
2018-12-10T11:31:39.462Z,4.91
2018-12-10T11:34:08.124Z,4.91
2018-12-10T11:36:36.967Z,5.09
2018-12-10T11:39:06.887Z,5.13
2018-12-10T11:41:35.740Z,5.18
2018-12-10T11:44:04.270Z,3.26
2018-12-10T11:46:33.367Z,5.18
2018-12-10T11:49:02.127Z,5.06
2018-12-10T11:51:30.544Z,5.24
2018-12-10T11:53:58.843Z,5.25
2018-12-10T11:56:27.083Z,5.45
2018-12-10T11:58:55.425Z,5.42
2018-12-10T12:01:23.785Z,5.28
2018-12-10T12:03:52.174Z,5.35
2018-12-10T12:06:20.605Z,5.52
2018-12-10T12:08:48.894Z,5.56
2018-12-10T12:11:17.385Z,5.83
2018-12-10T12:13:46.062Z,5.60
2018-12-10T12:16:15.013Z,5.48
2018-12-10T12:18:43.196Z,5.28
2018-12-10T12:21:11.383Z,5.37
2018-12-10T12:23:40.232Z,5.16
2018-12-10T12:26:08.584Z,5.21
2018-12-10T12:28:37.152Z,5.11
2018-12-10T12:31:05.420Z,5.27
2018-12-10T12:33:33.760Z,5.38
2018-12-10T12:36:02.066Z,5.45
2018-12-10T12:38:30.297Z,5.38
2018-12-10T12:40:58.768Z,5.33
2018-12-10T12:43:27.013Z,5.42
2018-12-10T12:45:55.527Z,5.49
2018-12-10T12:48:23.855Z,5.41
2018-12-10T12:50:52.541Z,5.52
2018-12-10T12:53:21.075Z,5.20
2018-12-10T12:55:49.647Z,5.36
2018-12-10T12:58:18.022Z,5.47
2018-12-10T13:00:46.682Z,5.48
2018-12-10T13:03:15.093Z,5.58
2018-12-10T13:05:43.486Z,5.40
2018-12-10T13:08:12.522Z,5.16
2018-12-10T13:10:40.831Z,5.40
2018-12-10T13:13:09.451Z,5.38
2018-12-10T13:15:37.931Z,5.45
2018-12-10T13:18:06.501Z,5.49
2018-12-10T13:20:35.730Z,5.71
2018-12-10T13:23:04.089Z,5.59
2018-12-10T13:25:32.461Z,5.71
2018-12-10T13:28:00.921Z,5.80
2018-12-10T13:30:29.347Z,5.77
2018-12-10T13:32:57.871Z,5.92
2018-12-10T13:35:26.393Z,5.83
2018-12-10T13:37:55.647Z,5.86
2018-12-10T13:40:24.533Z,5.97
2018-12-10T13:42:53.182Z,5.58
2018-12-10T13:45:22.205Z,5.43
2018-12-10T13:47:50.857Z,5.70
2018-12-10T13:50:19.622Z,5.76
2018-12-10T13:52:48.560Z,5.60
2018-12-10T13:55:16.953Z,5.62
2018-12-10T13:57:45.396Z,5.70
2018-12-10T14:00:14.287Z,5.56
2018-12-10T14:02:42.747Z,5.65
2018-12-10T14:05:15.765Z,5.44
2018-12-10T14:07:48.124Z,5.64
2018-12-10T14:10:15.706Z,5.51
2018-12-10T14:12:48.939Z,5.67
2018-12-10T14:15:18.921Z,5.65
2018-12-10T14:17:47.314Z,5.71
2018-12-10T14:20:21.038Z,5.62
2018-12-10T14:22:49.485Z,5.70
2018-12-10T14:25:24.365Z,5.67
2018-12-10T14:27:53.088Z,5.78
2018-12-10T14:30:22.669Z,5.64
2018-12-10T14:32:51.455Z,5.41
2018-12-10T14:35:19.862Z,5.27
2018-12-10T14:37:48.369Z,5.28
2018-12-10T14:40:16.936Z,5.26
2018-12-10T14:42:54.189Z,5.23
2018-12-10T14:45:22.811Z,5.39
2018-12-10T14:47:53.983Z,5.26
2018-12-10T14:50:22.266Z,5.31
2018-12-10T14:52:50.948Z,5.18
2018-12-10T14:55:19.411Z,5.27
2018-12-10T14:57:47.903Z,5.30
2018-12-10T15:00:16.427Z,5.05
2018-12-10T15:02:44.856Z,5.07
2018-12-10T15:05:13.189Z,5.02
2018-12-10T15:07:41.524Z,4.91
2018-12-10T15:10:11.005Z,5.02
2018-12-10T15:12:39.693Z,4.92
2018-12-10T15:15:09.700Z,5.09
2018-12-10T15:17:38.711Z,5.27
2018-12-10T15:20:12.050Z,5.14
2018-12-10T15:22:40.474Z,5.22
2018-12-10T15:25:09.756Z,5.10
2018-12-10T15:27:38.550Z,4.93
2018-12-10T15:30:10.418Z,4.97
2018-12-10T15:32:39.252Z,5.05
2018-12-10T15:35:22.563Z,5.06
2018-12-10T15:37:51.755Z,5.02
2018-12-10T15:40:20.225Z,5.13
2018-12-10T15:42:48.780Z,5.16
2018-12-10T15:45:17.192Z,5.22
2018-12-10T15:47:45.862Z,5.05
2018-12-10T15:50:14.251Z,5.10
2018-12-10T15:52:42.641Z,5.01
2018-12-10T15:55:11.090Z,4.87
2018-12-10T15:57:39.601Z,4.95
2018-12-10T16:00:08.739Z,4.89
2018-12-10T16:02:37.057Z,4.72
2018-12-10T16:05:05.846Z,4.80
2018-12-10T16:07:34.259Z,4.62
2018-12-10T16:10:02.785Z,4.49
2018-12-10T16:12:31.543Z,4.43
2018-12-10T16:15:00.028Z,4.49
2018-12-10T16:17:28.561Z,4.43
2018-12-10T16:19:56.898Z,4.36
2018-12-10T16:22:25.433Z,4.23
2018-12-10T16:24:53.909Z,4.26
2018-12-10T16:27:22.719Z,4.24
2018-12-10T16:29:51.265Z,4.34
2018-12-10T16:32:20.962Z,4.41
2018-12-10T16:34:49.464Z,4.42
2018-12-10T16:37:18.551Z,4.31
2018-12-10T16:39:47.273Z,4.31
2018-12-10T16:42:16.601Z,4.41
2018-12-10T16:44:45.098Z,4.21
2018-12-10T16:47:13.693Z,4.37
2018-12-10T16:49:42.113Z,4.23
2018-12-10T16:52:10.523Z,4.25
2018-12-10T16:54:39.905Z,4.34
2018-12-10T16:57:08.363Z,4.28
2018-12-10T16:59:36.616Z,4.39
2018-12-10T17:02:05.097Z,4.59
2018-12-10T17:04:33.545Z,4.67
2018-12-10T17:07:01.953Z,4.63
2018-12-10T17:09:30.475Z,4.57
2018-12-10T17:11:59.025Z,4.56
2018-12-10T17:14:28.427Z,4.62
2018-12-10T17:16:56.747Z,4.56
2018-12-10T17:19:25.613Z,4.71
2018-12-10T17:21:54.131Z,4.82
2018-12-10T17:24:22.758Z,4.54
2018-12-10T17:26:51.459Z,4.60
2018-12-10T17:29:20.162Z,4.68
2018-12-10T17:31:48.558Z,4.59
2018-12-10T17:34:16.935Z,4.54
2018-12-10T17:36:45.340Z,4.68
2018-12-10T17:39:13.722Z,4.61
2018-12-10T17:41:42.692Z,4.56
2018-12-10T17:44:11.069Z,4.63
2018-12-10T17:46:39.369Z,4.52
2018-12-10T17:49:07.726Z,4.57
2018-12-10T17:51:36.293Z,4.60
2018-12-10T17:54:05.099Z,4.79
2018-12-10T17:56:34.399Z,4.71
2018-12-10T17:59:03.245Z,4.78
2018-12-10T18:01:32.003Z,4.85
2018-12-10T18:04:03.272Z,4.82
2018-12-10T18:06:31.600Z,4.60
2018-12-10T18:09:00.095Z,4.54
2018-12-10T18:11:31.577Z,4.59
2018-12-10T18:13:59.920Z,4.54
2018-12-10T18:16:28.185Z,4.48
2018-12-10T18:18:56.691Z,4.43
2018-12-10T18:21:25.071Z,4.42
2018-12-10T18:23:53.473Z,4.50
2018-12-10T18:26:21.864Z,4.14
2018-12-10T18:28:50.352Z,4.14
2018-12-10T18:31:18.700Z,4.18
2018-12-10T18:33:47.314Z,4.17
2018-12-10T18:36:15.996Z,4.37
2018-12-10T18:38:44.864Z,4.46
2018-12-10T18:41:13.348Z,4.48
2018-12-10T18:43:41.867Z,4.45
2018-12-10T18:46:10.384Z,4.32
2018-12-10T18:48:38.823Z,4.34
2018-12-10T18:51:08.067Z,4.32
2018-12-10T18:53:36.507Z,4.37
2018-12-10T18:56:05.046Z,4.36
2018-12-10T18:58:33.697Z,4.41
2018-12-10T19:01:02.080Z,4.28
2018-12-10T19:03:30.507Z,4.37
2018-12-10T19:05:59.028Z,4.18
2018-12-10T19:08:27.683Z,4.25
2018-12-10T19:10:56.242Z,4.49
2018-12-10T19:13:25.042Z,4.67
2018-12-10T19:15:54.189Z,4.78
2018-12-10T19:18:22.466Z,4.58
2018-12-10T19:20:51.002Z,4.53
2018-12-10T19:23:19.414Z,4.65
2018-12-10T19:25:47.984Z,4.61
2018-12-10T19:28:16.358Z,4.37
2018-12-10T19:30:45.389Z,4.31
2018-12-10T19:33:14.287Z,4.47
2018-12-10T19:35:42.712Z,4.30
2018-12-10T19:38:11.158Z,4.20
2018-12-10T19:40:40.274Z,4.43
2018-12-10T19:43:08.777Z,4.53
2018-12-10T19:45:37.086Z,4.41
2018-12-10T19:48:05.404Z,4.31
2018-12-10T19:50:34.068Z,4.35
2018-12-10T19:53:02.881Z,4.19
2018-12-10T19:55:31.728Z,4.26
2018-12-10T19:58:00.552Z,4.16
2018-12-10T20:00:29.036Z,4.26
2018-12-10T20:02:58.290Z,4.22
2018-12-10T20:05:32.397Z,4.14
2018-12-10T20:08:00.733Z,4.41
2018-12-10T20:10:29.102Z,4.31
2018-12-10T20:12:57.481Z,4.26
2018-12-10T20:15:25.814Z,4.18
2018-12-10T20:17:54.303Z,4.25
2018-12-10T20:20:22.743Z,4.24
2018-12-10T20:22:50.992Z,4.15
2018-12-10T20:25:19.502Z,4.24
2018-12-10T20:27:48.128Z,4.07
2018-12-10T20:30:16.579Z,4.16
2018-12-10T20:32:45.121Z,4.11
2018-12-10T20:35:13.533Z,4.16
2018-12-10T20:37:41.957Z,4.11
2018-12-10T20:40:10.753Z,4.19
2018-12-10T20:42:39.443Z,3.97
2018-12-10T20:45:09.522Z,3.86
2018-12-10T20:47:38.197Z,3.92
2018-12-10T20:50:07.517Z,3.91
2018-12-10T20:52:36.091Z,3.86
2018-12-10T20:55:05.496Z,3.80
2018-12-10T20:57:33.805Z,3.86
2018-12-10T21:00:02.167Z,4.04
2018-12-10T21:02:31.128Z,3.95
2018-12-10T21:04:59.687Z,3.86
2018-12-10T21:07:28.235Z,3.95
2018-12-10T21:09:56.920Z,3.88
2018-12-10T21:12:25.481Z,4.01
2018-12-10T21:15:00.212Z,3.81
2018-12-10T21:17:24.999Z,3.76
2018-12-10T21:19:53.280Z,3.70
2018-12-10T21:22:21.775Z,3.72
2018-12-10T21:24:50.180Z,3.88
2018-12-10T21:27:18.786Z,3.70
2018-12-10T21:29:47.244Z,3.62
2018-12-10T21:32:15.682Z,3.72
2018-12-10T21:34:44.110Z,3.71
2018-12-10T21:37:12.436Z,3.78
2018-12-10T21:39:41.376Z,3.87
2018-12-10T21:42:09.675Z,3.92
2018-12-10T21:44:38.060Z,3.79
2018-12-10T21:47:06.959Z,3.80
2018-12-10T21:49:36.196Z,3.62
2018-12-10T21:52:04.694Z,3.63
2018-12-10T21:54:32.980Z,3.60
2018-12-10T21:57:01.701Z,3.58
2018-12-10T21:59:30.752Z,3.59
2018-12-10T22:01:59.188Z,3.79
2018-12-10T22:04:27.745Z,3.87
2018-12-10T22:06:56.000Z,3.86
2018-12-10T22:09:24.320Z,3.86
2018-12-10T22:11:52.580Z,3.53
2018-12-10T22:14:21.066Z,3.74
2018-12-10T22:16:49.479Z,3.58
2018-12-10T22:19:17.762Z,3.80
2018-12-10T22:21:46.280Z,3.52
2018-12-10T22:24:14.616Z,3.54
2018-12-10T22:26:43.056Z,3.40
2018-12-10T22:29:11.545Z,3.67
2018-12-10T22:31:40.061Z,3.45
2018-12-10T22:34:08.481Z,3.58
2018-12-10T22:36:36.968Z,3.60
2018-12-10T22:39:07.398Z,3.52
2018-12-10T22:41:35.697Z,3.43
2018-12-10T22:44:04.362Z,3.67
2018-12-10T22:46:32.930Z,3.45
2018-12-10T22:49:01.288Z,3.62
2018-12-10T22:51:29.914Z,3.73
2018-12-10T22:53:58.321Z,3.82
2018-12-10T22:56:27.185Z,3.86
2018-12-10T22:58:55.679Z,3.66
2018-12-10T23:01:24.595Z,3.75
2018-12-10T23:03:53.004Z,3.74
2018-12-10T23:06:21.475Z,3.65
2018-12-10T23:08:50.029Z,3.68
2018-12-10T23:11:18.548Z,3.71
2018-12-10T23:13:47.361Z,3.55
2018-12-10T23:16:15.960Z,3.46
2018-12-10T23:18:44.811Z,3.54
2018-12-10T23:21:13.511Z,3.55
2018-12-10T23:23:42.215Z,3.46
2018-12-10T23:26:10.546Z,3.57
2018-12-10T23:28:38.741Z,3.56
2018-12-10T23:31:07.195Z,3.57
2018-12-10T23:33:35.752Z,3.49
2018-12-10T23:36:04.315Z,3.49
2018-12-10T23:38:32.695Z,3.51
2018-12-10T23:41:01.196Z,3.60
2018-12-10T23:43:29.468Z,3.64
2018-12-10T23:45:57.752Z,3.61
2018-12-10T23:48:26.098Z,3.72
2018-12-10T23:50:54.536Z,3.84
2018-12-10T23:53:22.832Z,3.61
2018-12-10T23:55:51.236Z,3.65
2018-12-10T23:58:19.702Z,3.35
